Time;durP1;ratioP1;P1;durP2;ratioP2;P2;SDS_P1;SDS_P2;PMS_P1;PMS_P2;Temp;Humidity;BMP_temperature;BMP_pressure;BME280_temperature;BME280_humidity;BME280_pressure;Samples;Min_cycle;Max_cycle;Signal;HPM_P1;HPM_P2
2022/01/11 00:00:46;;;;;;;281.35;118.45;;;;;;;-2.80;61.82;101594.19;5032632;28;20056;-76
2022/01/11 00:03:14;;;;;;;242.57;110.55;;;;;;;-2.83;61.96;101596.75;5031164;28;20088;-69
2022/01/11 00:05:48;;;;;;;233.88;108.88;;;;;;;-2.87;62.15;101598.44;5032559;28;20060;-65
2022/01/11 00:08:19;;;;;;;268.27;119.38;;;;;;;-2.88;62.06;101600.19;5032140;28;20107;-66
2022/01/11 00:10:52;;;;;;;286.25;123.65;;;;;;;-2.90;62.10;101598.41;5032033;28;20086;-66
2022/01/11 00:13:20;;;;;;;250.85;107.45;;;;;;;-2.90;62.04;101611.34;5031564;28;20045;-77
2022/01/11 00:15:48;;;;;;;230.55;97.80;;;;;;;-2.92;62.06;101611.38;5031234;28;20045;-68
2022/01/11 00:18:16;;;;;;;222.55;89.18;;;;;;;-2.92;62.05;101611.38;5038609;28;20307;-68
2022/01/11 00:20:43;;;;;;;241.43;88.15;;;;;;;-2.95;61.81;101605.31;5038507;28;20053;-71
2022/01/11 00:25:57;;;;;;;;;;;;;;;-2.83;61.35;101609.66;5039892;28;20053;-73
2022/01/11 00:28:26;;;;;;;205.02;69.35;;;;;;;-3.01;61.58;101613.03;5037696;28;19929;-71
2022/01/11 00:30:55;;;;;;;209.20;83.88;;;;;;;-3.08;61.74;101613.00;5035959;28;20085;-74
2022/01/11 00:33:30;;;;;;;215.50;88.32;;;;;;;-3.11;61.29;101618.16;5034870;28;20068;-68
2022/01/11 00:35:59;;;;;;;214.07;86.45;;;;;;;-3.16;61.71;101619.84;5032572;28;20049;-70
2022/01/11 00:38:28;;;;;;;186.60;82.50;;;;;;;-3.24;61.54;101620.63;5035622;28;20041;-76
2022/01/11 00:40:58;;;;;;;240.13;102.85;;;;;;;-3.31;61.41;101617.19;5033428;28;20121;-63
2022/01/11 00:43:27;;;;;;;261.35;104.43;;;;;;;-3.35;61.23;101624.03;5030561;28;20051;-77
2022/01/11 00:45:55;;;;;;;259.00;105.05;;;;;;;-3.34;61.44;101623.16;5029693;28;20051;-71
2022/01/11 00:48:23;;;;;;;231.65;93.90;;;;;;;-3.28;61.38;101623.22;5034911;28;20049;-80
2022/01/11 00:50:51;;;;;;;226.23;106.72;;;;;;;-3.21;61.14;101618.09;5035248;28;20053;-79
2022/01/11 00:53:18;;;;;;;268.13;131.48;;;;;;;-3.26;61.07;101620.63;5035527;28;20049;-77
2022/01/11 00:55:47;;;;;;;470.83;199.60;;;;;;;-3.34;61.12;101627.47;5035727;28;20056;-78
2022/01/11 00:58:16;;;;;;;232.23;108.75;;;;;;;-3.31;61.34;101630.09;5034734;28;20052;-82
2022/01/11 01:00:44;;;;;;;205.18;98.22;;;;;;;-3.29;61.68;101618.03;5034144;28;20437;-71
2022/01/11 01:03:12;;;;;;;244.73;106.85;;;;;;;-3.28;61.94;101624.91;5040959;28;20076;-66
2022/01/11 01:05:40;;;;;;;272.85;133.40;;;;;;;-3.27;62.14;101619.78;5040286;28;20060;-77
2022/01/11 01:08:07;;;;;;;264.15;115.65;;;;;;;-3.24;62.14;101621.53;5033532;28;20061;-72
2022/01/11 01:10:39;;;;;;;224.05;102.68;;;;;;;-3.23;62.14;101622.38;5032984;28;20052;-67
2022/01/11 01:13:08;;;;;;;199.68;95.60;;;;;;;-3.21;62.09;101628.41;5032915;28;20045;-75
2022/01/11 01:15:37;;;;;;;234.98;104.90;;;;;;;-3.18;62.23;101615.53;5034568;28;20045;-69
2022/01/11 01:18:06;;;;;;;279.08;122.95;;;;;;;-3.19;61.96;101619.81;5033885;28;20056;-77
2022/01/11 01:20:34;;;;;;;383.13;161.60;;;;;;;-3.23;62.28;101614.63;5034218;28;20041;-65
2022/01/11 01:23:01;;;;;;;269.25;117.78;;;;;;;-3.25;62.13;101614.63;5033806;28;20045;-70
2022/01/11 01:25:28;;;;;;;390.88;166.48;;;;;;;-3.28;61.87;101620.63;5040264;28;20109;-78
2022/01/11 01:27:55;;;;;;;234.25;109.55;;;;;;;-3.29;62.12;101630.97;5034731;28;20069;-77
2022/01/11 01:30:23;;;;;;;265.40;126.85;;;;;;;-3.30;62.06;101626.63;5035579;28;20050;-80
2022/01/11 01:32:53;;;;;;;300.23;131.32;;;;;;;-3.30;62.26;101629.22;5032373;28;20562;-80
2022/01/11 01:35:25;;;;;;;236.50;125.03;;;;;;;-3.33;62.25;101630.06;5031669;28;20099;-75
2022/01/11 01:37:52;;;;;;;198.40;101.55;;;;;;;-3.35;62.41;101629.19;5036510;28;20057;-64
2022/01/11 01:40:19;;;;;;;184.98;90.80;;;;;;;-3.35;62.70;101629.19;5033904;28;20058;-79
2022/01/11 01:42:48;;;;;;;195.48;99.20;;;;;;;-3.33;62.24;101624.91;5030780;28;20056;-65
2022/01/11 01:45:15;;;;;;;158.00;80.25;;;;;;;-3.31;62.66;101632.69;5031097;28;20117;-73
2022/01/11 01:47:42;;;;;;;171.60;77.13;;;;;;;-3.30;62.48;101632.66;5031512;28;20045;-71
2022/01/11 01:50:12;;;;;;;166.07;76.43;;;;;;;-3.26;62.37;101638.72;5029999;28;20049;-71
2022/01/11 01:52:40;;;;;;;154.88;70.53;;;;;;;-3.25;62.35;101644.75;5030279;28;20077;-65
2022/01/11 01:55:08;;;;;;;170.73;76.88;;;;;;;-3.28;62.24;101645.59;5029018;28;20727;-68
2022/01/11 01:57:35;;;;;;;177.13;84.68;;;;;;;-3.30;62.10;101652.47;5030572;28;20041;-65
2022/01/11 02:00:11;;;;;;;152.40;70.18;;;;;;;-3.29;62.23;101649.91;5027786;28;20056;-77
2022/01/11 02:02:38;;;;;;;178.10;76.20;;;;;;;-3.26;62.41;101659.38;5029280;28;20049;-66
2022/01/11 02:05:06;;;;;;;171.65;76.80;;;;;;;-3.27;62.05;101662.84;5011469;28;20120;-66
2022/01/11 02:07:35;;;;;;;156.07;71.40;;;;;;;-3.27;62.04;101666.28;5028944;28;20049;-77
2022/01/11 02:10:04;;;;;;;284.33;109.05;;;;;;;-3.28;62.08;101669.72;5028544;28;20054;-72
2022/01/11 02:12:32;;;;;;;184.25;85.32;;;;;;;-3.30;62.02;101665.38;5029818;28;20049;-76
2022/01/11 02:14:59;;;;;;;190.38;87.22;;;;;;;-3.30;62.21;101666.25;5030820;28;20636;-69
2022/01/11 02:17:27;;;;;;;165.10;75.78;;;;;;;-3.31;62.11;101671.44;5029783;28;20105;-72
2022/01/11 02:19:55;;;;;;;155.80;80.78;;;;;;;-3.33;62.12;101668.81;5029920;28;20056;-73
2022/01/11 02:22:24;;;;;;;180.95;84.97;;;;;;;-3.32;62.54;101664.53;5030684;28;20054;-70
2022/01/11 02:24:51;;;;;;;148.38;76.63;;;;;;;-3.36;62.62;101673.97;5030938;28;20241;-78
2022/01/11 02:27:18;;;;;;;145.40;72.40;;;;;;;-3.37;62.47;101667.06;5030002;28;20554;-79
2022/01/11 02:29:46;;;;;;;164.82;88.38;;;;;;;-3.42;62.64;101673.03;5029707;28;20125;-76
2022/01/11 02:32:13;;;;;;;159.73;88.13;;;;;;;-3.47;62.55;101671.28;5030333;28;20050;-71
2022/01/11 02:34:40;;;;;;;128.15;60.47;;;;;;;-3.45;62.72;101666.16;5013107;28;20052;-73
2022/01/11 02:37:07;;;;;;;155.85;74.35;;;;;;;-3.47;62.59;101671.28;5031544;28;20099;-74
2022/01/11 02:39:36;;;;;;;112.90;60.25;;;;;;;-3.44;62.62;101673.03;5035165;28;20490;-78
2022/01/11 02:42:03;;;;;;;128.95;65.25;;;;;;;-3.43;62.74;101677.34;5040044;28;20105;-69
2022/01/11 02:44:30;;;;;;;123.30;56.15;;;;;;;-3.41;62.79;101673.06;5040996;28;20105;-66
2022/01/11 02:46:57;;;;;;;119.93;61.13;;;;;;;-3.38;62.70;101669.66;5034478;28;20051;-75
2022/01/11 02:49:25;;;;;;;128.70;59.67;;;;;;;-3.37;62.69;101676.53;5031643;28;20041;-70
2022/01/11 02:51:53;;;;;;;139.52;68.15;;;;;;;-3.37;62.59;101677.38;5029096;28;20194;-73
2022/01/11 02:54:20;;;;;;;132.10;63.35;;;;;;;-3.33;62.64;101679.16;5029556;28;20064;-66
2022/01/11 02:56:49;;;;;;;126.03;57.03;;;;;;;-3.34;62.76;101680.00;5029833;28;20050;-68
2022/01/11 02:59:16;;;;;;;112.32;54.97;;;;;;;-3.33;62.60;101678.28;5028085;28;20077;-65
2022/01/11 03:01:43;;;;;;;136.82;66.25;;;;;;;-3.33;62.54;101675.69;5029508;28;20052;-69
2022/01/11 03:04:10;;;;;;;137.77;68.53;;;;;;;-3.35;62.76;101680.88;5029290;28;20648;-72
2022/01/11 03:06:37;;;;;;;133.50;59.55;;;;;;;-3.35;62.51;101683.47;5030216;28;20048;-78
2022/01/11 03:09:04;;;;;;;128.82;66.30;;;;;;;-3.36;62.68;101681.72;5029100;28;20042;-76
2022/01/11 03:11:33;;;;;;;124.53;64.18;;;;;;;-3.39;62.63;101684.25;5029173;28;20045;-74
2022/01/11 03:14:03;;;;;;;145.25;66.63;;;;;;;-3.36;62.63;101691.19;5028693;28;20049;-80
2022/01/11 03:16:30;;;;;;;139.73;63.42;;;;;;;-3.39;62.56;101691.16;5028993;28;20049;-74
2022/01/11 03:18:57;;;;;;;130.43;61.35;;;;;;;-3.39;62.69;101692.00;5029798;28;20053;-73
2022/01/11 03:21:26;;;;;;;119.45;52.42;;;;;;;-3.35;62.59;101690.31;5028670;28;20049;-70
2022/01/11 03:23:54;;;;;;;125.07;57.05;;;;;;;-3.37;62.66;101692.03;5029322;28;20057;-76
2022/01/11 03:26:21;;;;;;;117.55;56.88;;;;;;;-3.37;62.56;101702.38;5029907;28;20049;-68
2022/01/11 03:28:48;;;;;;;133.65;61.97;;;;;;;-3.38;62.71;101696.34;5027605;28;20065;-71
2022/01/11 03:31:19;;;;;;;121.88;68.05;;;;;;;-3.39;62.82;101706.66;5029646;28;20052;-66
2022/01/11 03:33:46;;;;;;;111.60;54.00;;;;;;;-3.40;62.34;101713.56;5033805;28;20041;-69
2022/01/11 03:36:15;;;;;;;110.18;51.25;;;;;;;-3.40;62.62;101720.41;5030220;28;20111;-75
2022/01/11 03:38:42;;;;;;;116.20;58.03;;;;;;;-3.41;62.74;101716.97;5028369;28;20409;-74
2022/01/11 03:41:10;;;;;;;121.65;58.05;;;;;;;-3.41;62.51;101716.97;5029598;28;20060;-65
2022/01/11 03:43:37;;;;;;;108.07;57.25;;;;;;;-3.42;62.53;101709.22;5030816;28;20424;-71
2022/01/11 03:46:05;;;;;;;137.68;65.93;;;;;;;-3.45;62.71;101707.47;5027487;28;20055;-68
2022/01/11 03:48:33;;;;;;;126.30;67.80;;;;;;;-3.47;62.67;101716.94;5029091;28;20050;-75
2022/01/11 03:51:00;;;;;;;125.03;62.40;;;;;;;-3.50;62.61;101712.59;5026377;28;20060;-74
2022/01/11 03:53:34;;;;;;;137.82;63.20;;;;;;;-3.51;62.33;101717.72;5026614;28;20133;-70
2022/01/11 03:56:21;;;;;;;145.00;61.83;;;;;;;-3.52;62.28;101713.44;5027146;28;20045;-67
2022/01/11 03:58:49;;;;;;;124.45;61.65;;;;;;;-3.56;62.44;101709.97;5026657;28;20504;-76
2022/01/11 04:01:17;;;;;;;126.90;58.85;;;;;;;-3.58;62.51;101714.25;5028565;28;20148;-75
2022/01/11 04:03:46;;;;;;;135.77;63.33;;;;;;;-3.62;62.35;101712.47;5029786;28;20088;-75
2022/01/11 04:06:16;;;;;;;137.02;71.07;;;;;;;-3.62;62.56;101709.03;5029573;28;20053;-76
2022/01/11 04:08:44;;;;;;;130.38;62.67;;;;;;;-3.65;62.24;101713.31;5029056;28;20102;-72
2022/01/11 04:11:11;;;;;;;137.50;65.78;;;;;;;-3.65;62.47;101713.31;5032438;28;20115;-67
2022/01/11 04:13:39;;;;;;;152.13;68.95;;;;;;;-3.67;62.31;101720.19;5032368;28;20049;-77
2022/01/11 04:16:07;;;;;;;139.35;69.72;;;;;;;-3.69;62.30;101724.47;5031629;28;20049;-75
2022/01/11 04:18:34;;;;;;;170.45;79.85;;;;;;;-3.72;62.53;101721.00;5028338;28;20067;-76
2022/01/11 04:21:03;;;;;;;131.30;67.40;;;;;;;-3.73;62.27;101734.75;5027715;28;20417;-80
2022/01/11 04:23:31;;;;;;;131.35;62.47;;;;;;;-3.73;62.19;101729.59;5027818;28;20509;-75
2022/01/11 04:25:59;;;;;;;113.40;56.17;;;;;;;-3.74;62.34;101731.31;5027868;28;20168;-67
2022/01/11 04:28:27;;;;;;;121.20;56.25;;;;;;;-3.74;62.39;101733.88;5026001;28;20137;-81
2022/01/11 04:30:57;;;;;;;112.30;49.00;;;;;;;-3.72;62.37;101734.78;5028260;28;20049;-79
2022/01/11 04:33:25;;;;;;;115.13;53.22;;;;;;;-3.73;62.07;101735.59;5028240;28;20536;-70
2022/01/11 04:35:52;;;;;;;202.32;81.80;;;;;;;-3.75;62.19;101737.31;5027466;28;20056;-78
2022/01/11 04:38:22;;;;;;;278.73;104.95;;;;;;;-3.76;62.17;101743.34;5034842;28;20405;-73
2022/01/11 04:40:50;;;;;;;167.95;67.93;;;;;;;-3.80;62.11;101743.28;5027768;28;20048;-82
2022/01/11 04:43:18;;;;;;;205.80;74.22;;;;;;;-3.82;62.16;101742.41;5009666;28;20045;-77
2022/01/11 04:45:47;;;;;;;199.10;79.47;;;;;;;-3.85;61.92;101744.09;5028196;28;20573;-83
2022/01/11 04:48:15;;;;;;;126.35;56.20;;;;;;;-3.85;61.69;101751.00;5026853;28;20452;-76
2022/01/11 04:50:43;;;;;;;143.57;65.57;;;;;;;-3.88;62.20;101756.13;4982170;28;1307024;-67
2022/01/11 04:53:09;;;;;;;236.93;105.10;;;;;;;-3.91;61.93;101750.91;5028374;28;20403;-67
2022/01/11 04:55:38;;;;;;;273.85;114.65;;;;;;;-3.96;61.90;101757.72;5032365;28;20041;-71
2022/01/11 04:58:05;;;;;;;163.30;83.28;;;;;;;-3.99;61.94;101760.28;5033713;28;20105;-70
2022/01/11 05:00:32;;;;;;;157.68;80.25;;;;;;;-4.03;62.05;101762.81;5029493;28;20474;-68
2022/01/11 05:02:59;;;;;;;158.73;78.63;;;;;;;-4.05;62.10;101756.78;5027748;28;20494;-74
2022/01/11 05:05:28;;;;;;;166.40;77.55;;;;;;;-4.06;62.13;101756.75;5028502;28;20053;-76
2022/01/11 05:07:55;;;;;;;146.23;75.25;;;;;;;-4.08;62.07;101761.91;5028683;28;20577;-77
2022/01/11 05:10:23;;;;;;;177.82;85.93;;;;;;;-4.10;62.26;101766.19;5009515;28;20494;-77
2022/01/11 05:12:51;;;;;;;183.80;86.25;;;;;;;-4.11;62.15;101774.75;5011500;28;20053;-82
2022/01/11 05:15:18;;;;;;;199.82;94.43;;;;;;;-4.14;62.02;101773.84;5028075;28;20136;-75
2022/01/11 05:17:46;;;;;;;171.45;90.07;;;;;;;-4.19;62.14;101778.97;5027548;28;20049;-81
2022/01/11 05:20:17;;;;;;;202.90;104.90;;;;;;;-4.19;62.15;101778.97;5025985;28;20046;-74
2022/01/11 05:22:45;;;;;;;158.57;81.32;;;;;;;-4.23;61.94;101777.22;5023305;28;20045;-75
2022/01/11 05:25:14;;;;;;;136.13;76.90;;;;;;;-4.22;62.06;101781.50;5024558;28;20076;-75
2022/01/11 05:27:41;;;;;;;165.20;84.57;;;;;;;-4.22;61.99;101776.34;5023966;28;20456;-71
2022/01/11 05:30:12;;;;;;;172.48;89.55;;;;;;;-4.21;62.08;101775.50;5026899;28;20274;-78
2022/01/11 05:32:41;;;;;;;373.00;147.77;;;;;;;-4.24;62.03;101780.63;5025850;28;20409;-73
2022/01/11 05:35:13;;;;;;;370.63;186.80;;;;;;;-4.24;61.93;101783.19;5011352;28;20045;-73
2022/01/11 05:37:40;;;;;;;229.27;115.28;;;;;;;-4.25;61.97;101782.34;5026144;28;20652;-73
2022/01/11 05:40:10;;;;;;;245.52;122.90;;;;;;;-4.23;62.12;101782.38;5008982;28;20045;-68
2022/01/11 05:42:38;;;;;;;225.52;114.25;;;;;;;-4.22;62.19;101784.09;5028172;28;20049;-71
2022/01/11 05:45:07;;;;;;;244.05;124.88;;;;;;;-4.24;62.04;101783.19;5027675;28;20489;-71
2022/01/11 05:47:36;;;;;;;245.98;135.60;;;;;;;-4.24;62.16;101786.63;5029724;28;20060;-75
2022/01/11 05:50:05;;;;;;;243.20;120.22;;;;;;;-4.26;62.00;101790.06;5029367;28;20041;-69
2022/01/11 05:52:32;;;;;;;218.35;128.18;;;;;;;-4.29;61.90;101795.16;5030177;28;20054;-78
2022/01/11 05:55:00;;;;;;;213.02;116.97;;;;;;;-4.30;61.95;101793.44;5033365;28;20052;-69
2022/01/11 05:57:27;;;;;;;193.70;102.10;;;;;;;-4.29;62.07;101808.06;5037515;28;20052;-71
2022/01/11 05:59:54;;;;;;;180.50;103.30;;;;;;;-4.27;62.08;101799.53;5030744;28;20049;-75
2022/01/11 06:02:21;;;;;;;163.50;93.35;;;;;;;-4.25;62.27;101808.13;5035635;28;20132;-75
2022/01/11 06:04:50;;;;;;;172.35;93.72;;;;;;;-4.18;62.34;101808.22;5044449;28;20049;-76
2022/01/11 06:07:18;;;;;;;146.18;79.53;;;;;;;-4.13;62.21;101812.59;5045469;28;20121;-75
2022/01/11 06:09:45;;;;;;;145.88;77.30;;;;;;;-4.07;62.34;101816.94;5048089;28;20143;-78
2022/01/11 06:12:17;;;;;;;162.38;84.53;;;;;;;-4.00;62.28;101828.22;5048269;28;20109;-75
2022/01/11 06:14:45;;;;;;;142.13;81.05;;;;;;;-3.97;62.04;101820.53;5049890;28;20053;-77
2022/01/11 06:17:12;;;;;;;164.02;86.93;;;;;;;-3.93;62.13;101817.13;5051620;28;20168;-78
2022/01/11 06:19:39;;;;;;;178.23;90.40;;;;;;;-3.90;62.07;101815.47;5047242;28;20065;-78
2022/01/11 06:22:07;;;;;;;182.30;92.47;;;;;;;-3.82;62.01;101822.44;5043868;28;20339;-79
2022/01/11 06:24:35;;;;;;;167.25;85.13;;;;;;;-3.78;61.76;101819.91;5042981;28;20140;-75
2022/01/11 06:27:04;;;;;;;173.30;93.05;;;;;;;-3.73;61.65;101819.94;5043506;28;20133;-78
2022/01/11 06:29:31;;;;;;;185.38;96.53;;;;;;;-3.73;61.54;101822.53;5040703;28;20162;-77
2022/01/11 06:31:59;;;;;;;208.25;104.45;;;;;;;-3.71;61.70;101826.88;5041812;28;20054;-79
2022/01/11 06:34:26;;;;;;;202.88;113.20;;;;;;;-3.68;61.27;101832.06;5023282;28;20502;-73
2022/01/11 06:36:54;;;;;;;221.75;118.03;;;;;;;-3.65;61.39;101837.28;5045733;28;20073;-73
2022/01/11 06:39:23;;;;;;;278.73;150.90;;;;;;;-3.60;61.65;101836.44;5044735;28;20539;-74
2022/01/11 06:41:50;;;;;;;271.83;158.95;;;;;;;-3.56;61.56;101846.00;5039822;28;20660;-71
2022/01/11 06:44:17;;;;;;;398.25;210.63;;;;;;;-3.52;61.20;101847.75;5022121;28;20084;-79
2022/01/11 06:46:44;;;;;;;283.83;138.05;;;;;;;-3.47;61.13;101848.66;5044247;28;20049;-77
2022/01/11 06:49:12;;;;;;;377.92;171.88;;;;;;;-3.39;61.32;101843.56;5042051;28;20121;-79
2022/01/11 06:51:39;;;;;;;212.05;108.97;;;;;;;-3.33;61.06;101851.38;5023128;28;20067;-78
2022/01/11 06:54:07;;;;;;;235.52;119.00;;;;;;;-3.29;60.78;101848.00;5039751;28;20132;-78
2022/01/11 06:56:38;;;;;;;278.55;143.68;;;;;;;-3.21;60.92;101854.09;5042477;28;20266;-74
2022/01/11 06:59:05;;;;;;;306.70;160.15;;;;;;;-3.16;60.69;101855.00;4988523;28;20053;-74
2022/01/11 07:01:32;;;;;;;289.92;138.23;;;;;;;-3.09;60.59;101856.81;5042302;28;20117;-76
2022/01/11 07:03:59;;;;;;;312.90;158.50;;;;;;;-3.01;60.68;101862.03;5042825;28;20802;-76
2022/01/11 07:06:27;;;;;;;290.25;142.10;;;;;;;-2.93;60.56;101868.16;5041320;28;20105;-72
2022/01/11 07:08:55;;;;;;;224.30;105.10;;;;;;;-2.83;60.64;101873.41;5039839;28;20049;-76
2022/01/11 07:11:24;;;;;;;164.10;80.78;;;;;;;-2.73;60.42;101876.09;5040913;28;20096;-77
2022/01/11 07:13:53;;;;;;;119.18;58.53;;;;;;;-2.65;60.83;101878.72;5021203;28;20065;-76
2022/01/11 07:16:21;;;;;;;214.93;77.65;;;;;;;-2.63;60.96;101874.47;5037030;28;20172;-75
2022/01/11 07:18:48;;;;;;;179.88;92.05;;;;;;;-2.68;61.33;101878.72;5038616;28;20091;-74
2022/01/11 07:21:16;;;;;;;189.18;88.68;;;;;;;-2.67;61.93;101883.03;5038958;28;20120;-74
2022/01/11 07:23:44;;;;;;;140.57;62.95;;;;;;;-2.60;61.76;101878.78;5038147;28;20093;-74
2022/01/11 07:26:12;;;;;;;95.57;37.58;;;;;;;-2.45;61.40;101888.38;5042283;28;20072;-75
2022/01/11 07:28:39;;;;;;;102.85;37.80;;;;;;;-2.29;61.29;101890.22;5023792;28;20063;-73
2022/01/11 07:31:08;;;;;;;295.42;98.97;;;;;;;-2.26;61.26;101887.66;5045745;28;20045;-72
2022/01/11 07:33:36;;;;;;;207.45;75.20;;;;;;;-2.42;61.94;101898.75;5043980;28;20056;-76
2022/01/11 07:36:03;;;;;;;238.00;89.88;;;;;;;-2.54;62.21;101897.81;5035205;28;20105;-77
2022/01/11 07:38:32;;;;;;;152.98;62.40;;;;;;;-2.46;61.80;101904.78;5032998;28;20108;-70
2022/01/11 07:41:00;;;;;;;99.88;35.85;;;;;;;-2.33;61.85;101902.25;5027277;28;20189;-75
2022/01/11 07:43:28;;;;;;;98.70;35.90;;;;;;;-2.22;61.34;101899.75;5049435;28;20029;-73
2022/01/11 07:45:55;;;;;;;218.32;80.28;;;;;;;-2.10;61.25;101903.31;5050317;28;20045;-74
2022/01/11 07:48:24;;;;;;;173.77;75.97;;;;;;;-2.26;61.41;101902.31;5043576;28;20104;-76
2022/01/11 07:50:51;;;;;;;227.27;73.80;;;;;;;-2.42;61.38;101912.56;5047449;28;20065;-74
2022/01/11 07:53:20;;;;;;;155.20;62.88;;;;;;;-2.48;61.49;101904.75;5047975;28;20080;-74
2022/01/11 07:55:47;;;;;;;160.82;54.47;;;;;;;-2.45;61.49;101903.91;5047181;28;20053;-75
2022/01/11 07:58:15;;;;;;;142.40;56.40;;;;;;;-2.39;61.77;101904.81;5042462;28;20045;-74
2022/01/11 08:00:43;;;;;;;107.43;41.53;;;;;;;-2.31;61.64;101905.72;5041645;28;20048;-75
2022/01/11 08:03:10;;;;;;;78.65;33.15;;;;;;;-2.14;61.30;101908.44;5042110;28;20056;-76
2022/01/11 08:05:39;;;;;;;96.72;36.13;;;;;;;-1.95;61.00;101905.97;5042242;28;20049;-75
2022/01/11 08:08:08;;;;;;;168.20;71.38;;;;;;;-1.96;60.73;101912.03;5042346;28;20068;-74
2022/01/11 08:10:36;;;;;;;222.15;89.53;;;;;;;-2.32;60.91;101919.53;5024771;28;20073;-72
2022/01/11 08:13:06;;;;;;;157.80;69.85;;;;;;;-2.38;61.04;101918.63;5021432;28;20616;-74
2022/01/11 08:15:37;;;;;;;159.40;80.72;;;;;;;-2.36;61.19;101922.97;5037312;28;20057;-75
2022/01/11 08:18:05;;;;;;;100.03;47.05;;;;;;;-2.38;61.27;101919.47;5021309;28;20042;-73
2022/01/11 08:20:33;;;;;;;175.15;80.85;;;;;;;-2.35;61.34;101910.88;5035225;28;20080;-73
2022/01/11 08:23:03;;;;;;;144.50;67.57;;;;;;;-2.31;61.62;101922.97;5040874;28;20422;-76
2022/01/11 08:25:34;;;;;;;80.15;37.20;;;;;;;-2.29;61.46;101918.69;5036146;28;20069;-72
2022/01/11 08:28:01;;;;;;;81.47;36.53;;;;;;;-2.12;61.26;101914.50;5018221;28;20076;-73
2022/01/11 08:30:31;;;;;;;95.68;38.88;;;;;;;-1.96;61.20;101919.78;5041967;28;20527;-75
2022/01/11 08:32:59;;;;;;;104.55;43.20;;;;;;;-1.82;60.95;101923.31;5017991;28;20050;-75
2022/01/11 08:35:30;;;;;;;101.82;36.63;;;;;;;-1.69;60.29;101929.44;5036090;28;20604;-74
2022/01/11 08:37:57;;;;;;;83.28;35.30;;;;;;;-1.56;60.74;101923.44;5037303;28;20429;-72
2022/01/11 08:40:27;;;;;;;116.47;55.05;;;;;;;-1.45;60.26;101931.25;5038741;28;20113;-76
2022/01/11 08:42:56;;;;;;;130.50;59.08;;;;;;;-1.54;60.19;101934.66;5041102;28;20041;-75
2022/01/11 08:45:24;;;;;;;100.97;42.42;;;;;;;-1.61;60.39;101943.28;5037400;28;20070;-75
2022/01/11 08:47:53;;;;;;;124.63;51.67;;;;;;;-1.62;60.46;101944.16;5023781;28;20042;-77
2022/01/11 08:50:20;;;;;;;164.65;66.07;;;;;;;-1.76;60.54;101945.81;5021995;28;20144;-73
2022/01/11 08:52:49;;;;;;;119.32;48.47;;;;;;;-1.77;60.21;101952.69;5040779;28;20049;-76
2022/01/11 08:55:17;;;;;;;113.97;45.28;;;;;;;-1.62;60.61;101951.94;5039011;28;20049;-74
2022/01/11 08:57:46;;;;;;;144.32;49.60;;;;;;;-1.47;60.14;101951.13;5021183;28;20075;-77
2022/01/11 09:00:19;;;;;;;111.20;44.75;;;;;;;-1.47;60.09;101953.72;5039208;28;20041;-79
2022/01/11 09:02:46;;;;;;;92.35;36.30;;;;;;;-1.39;60.21;101959.81;5039404;28;20049;-78
2022/01/11 09:05:15;;;;;;;100.95;34.42;;;;;;;-1.36;60.15;101965.00;5037259;28;20069;-75
2022/01/11 09:07:42;;;;;;;79.00;28.73;;;;;;;-1.35;59.99;101966.72;5021582;28;20721;-78
2022/01/11 09:10:11;;;;;;;96.88;33.35;;;;;;;-1.33;60.25;101968.44;5039681;28;20124;-73
2022/01/11 09:12:39;;;;;;;77.30;28.90;;;;;;;-1.41;60.42;101968.41;5043838;28;20057;-76
2022/01/11 09:15:11;;;;;;;98.60;31.75;;;;;;;-1.44;60.29;101977.06;5043468;28;20105;-74
2022/01/11 09:17:41;;;;;;;109.15;34.47;;;;;;;-1.56;60.58;101974.41;5006966;28;20084;-72
2022/01/11 09:20:11;;;;;;;83.55;29.75;;;;;;;-1.68;60.59;101982.09;5040785;28;20041;-79
2022/01/11 09:22:39;;;;;;;85.50;28.20;;;;;;;-1.67;60.97;101978.66;5037920;28;20129;-76
2022/01/11 09:25:10;;;;;;;74.78;28.40;;;;;;;-1.50;60.59;101977.00;5026987;28;20525;-79
2022/01/11 09:27:39;;;;;;;98.40;28.60;;;;;;;-1.49;60.52;101988.28;4973636;28;20133;-78
2022/01/11 09:30:11;;;;;;;74.38;27.00;;;;;;;-1.49;60.54;101980.50;5036276;28;20140;-75
2022/01/11 09:32:40;;;;;;;86.00;31.73;;;;;;;-1.58;60.71;101986.50;5036464;28;20085;-77
2022/01/11 09:35:10;;;;;;;87.80;30.10;;;;;;;-1.53;61.01;101987.38;5036167;28;20048;-75
2022/01/11 09:37:39;;;;;;;76.82;29.30;;;;;;;-1.40;60.38;101984.00;4951569;28;20490;-73
2022/01/11 09:40:08;;;;;;;73.38;29.92;;;;;;;-1.31;60.37;101971.94;5035639;28;20132;-74
2022/01/11 09:42:37;;;;;;;77.22;30.58;;;;;;;-1.24;60.33;101971.06;5033993;28;20105;-78
2022/01/11 09:45:05;;;;;;;61.83;26.88;;;;;;;-1.24;60.43;101969.38;5031212;28;20453;-75
2022/01/11 09:47:34;;;;;;;62.60;29.20;;;;;;;-1.01;60.48;101972.06;5031414;28;20679;-73
2022/01/11 09:50:02;;;;;;;93.50;33.13;;;;;;;-0.75;59.79;101960.88;5031305;28;20133;-74
2022/01/11 09:52:30;;;;;;;69.35;28.05;;;;;;;-0.73;59.57;101964.31;5032290;28;20053;-76
2022/01/11 09:54:57;;;;;;;64.10;28.65;;;;;;;-0.80;59.80;101966.03;5030126;28;20049;-74
2022/01/11 09:57:25;;;;;;;69.35;31.00;;;;;;;-0.89;60.50;101962.56;5017780;28;20049;-75
2022/01/11 09:59:53;;;;;;;66.03;25.42;;;;;;;-0.83;60.26;101959.97;5032698;28;20747;-73
2022/01/11 10:02:21;;;;;;;71.97;27.90;;;;;;;-0.83;60.32;101966.03;5035346;28;20688;-73
2022/01/11 10:04:58;;;;;;;72.90;28.58;;;;;;;-0.70;60.54;101960.84;5037640;28;20551;-76
2022/01/11 10:07:30;;;;;;;73.82;28.52;;;;;;;-0.57;60.18;101964.34;5031857;28;20049;-75
2022/01/11 10:09:57;;;;;;;77.70;33.72;;;;;;;-0.46;60.05;101960.03;5030214;28;20520;-73
2022/01/11 10:12:26;;;;;;;76.80;31.42;;;;;;;-0.33;59.85;101956.56;5012932;28;20172;-80
2022/01/11 10:14:55;;;;;;;82.93;30.38;;;;;;;-0.16;59.52;101963.47;5028194;28;20046;-71
2022/01/11 10:17:27;;;;;;;83.47;35.72;;;;;;;-0.02;59.42;101956.53;5031708;28;20144;-71
2022/01/11 10:20:06;;;;;;;86.10;37.47;;;;;;;0.22;59.08;101962.56;5015550;28;20049;-78
2022/01/11 10:22:34;;;;;;;84.07;33.97;;;;;;;0.36;58.99;101964.28;5029590;28;20045;-79
2022/01/11 10:25:03;;;;;;;61.33;26.98;;;;;;;0.36;58.55;101953.88;5029186;28;20120;-77
2022/01/11 10:27:33;;;;;;;74.40;31.00;;;;;;;0.36;59.00;101956.47;5028900;28;20747;-77
2022/01/11 10:30:04;;;;;;;81.47;35.95;;;;;;;0.51;59.14;101947.75;5029604;28;20561;-74
2022/01/11 10:32:34;;;;;;;82.43;34.88;;;;;;;0.77;58.78;101949.38;5028913;28;20132;-75
2022/01/11 10:35:07;;;;;;;72.95;30.20;;;;;;;1.00;58.45;101957.09;5027287;28;20132;-74
2022/01/11 10:37:37;;;;;;;68.50;29.58;;;;;;;0.99;58.33;101951.88;5028509;28;20045;-74
2022/01/11 10:40:09;;;;;;;78.10;31.60;;;;;;;1.11;58.12;101960.47;5029002;28;20052;-76
2022/01/11 10:42:41;;;;;;;71.55;35.42;;;;;;;1.23;57.99;101956.09;5027535;28;20137;-77
2022/01/11 10:45:10;;;;;;;86.35;37.30;;;;;;;1.31;57.94;101962.97;5029206;28;20046;-73
2022/01/11 10:47:40;;;;;;;85.45;34.03;;;;;;;1.37;57.97;101955.97;5011942;28;20455;-74
2022/01/11 10:50:12;;;;;;;80.45;34.47;;;;;;;1.39;57.88;101959.44;5024906;28;20064;-79
2022/01/11 10:52:40;;;;;;;104.05;42.10;;;;;;;1.24;57.47;101966.50;5036422;28;20050;-75
2022/01/11 10:55:15;;;;;;;99.57;41.30;;;;;;;0.88;57.87;101963.22;5031558;28;20584;-79
2022/01/11 10:57:44;;;;;;;84.93;35.83;;;;;;;0.63;58.58;101956.38;5027798;28;20060;-73
2022/01/11 11:00:18;;;;;;;90.75;37.53;;;;;;;0.65;58.54;101959.84;5038681;28;20234;-75
2022/01/11 11:02:50;;;;;;;83.27;39.67;;;;;;;0.69;58.39;101961.56;5033182;28;20611;-79
2022/01/11 11:05:25;;;;;;;82.47;31.70;;;;;;;0.83;58.43;101964.09;5028237;28;20050;-73
2022/01/11 11:08:12;;;;;;;72.05;30.30;;;;;;;1.15;58.05;101963.94;5035954;28;20060;-75
2022/01/11 11:10:48;;;;;;;70.90;28.83;;;;;;;1.37;57.80;101963.78;5029283;28;20068;-77